This is the latest recevied weather packets stored in our database for station/object SM6LNJ-13. If no packets are shown the sender has not sent any weather packets the latest 10 day(s).
| Time | Temp. | Humidity | Pressure | Rain* | Wind** | Luminosity | Snow |
|---|---|---|---|---|---|---|---|
| 1777646873 | 18.33° C | 47% | 1439.4 hPa | 0 mm | - | - | - |
| 1777646753 | 18.89° C | 47% | 1439.8 hPa | 0 mm | - | - | - |
| 1777646393 | 19.44° C | 46% | 1441.2 hPa | 0 mm | - | - | - |
| 1777646273 | 18.89° C | 47% | 1440.7 hPa | 0 mm | - | - | - |
| 1777645786 | 18.89° C | 46% | 1440.3 hPa | 0 mm | - | - | - |
| 1777645666 | 19.44° C | 46% | 1441.5 hPa | 0 mm | - | - | - |
| 1777645553 | 19.44° C | 46% | 1441.3 hPa | 0 mm | - | - | - |
| 1777645313 | 18.89° C | 46% | 1440.7 hPa | 0 mm | - | - | - |
| 1777645186 | 19.44° C | 47% | 1440.9 hPa | 0 mm | - | - | - |
| 1777645066 | 18.89° C | 48% | 1439.6 hPa | 0 mm | - | - | - |
| 1777644946 | 18.33° C | 48% | 1438.8 hPa | 0 mm | - | - | - |
| 1777644826 | 18.33° C | 47% | 1439.1 hPa | 0 mm | - | - | - |
| 1777644706 | 18.89° C | 47% | 1439.7 hPa | 0 mm | - | - | - |
| 1777644586 | 18.89° C | 47% | 1439.9 hPa | 0 mm | - | - | - |
| 1777644473 | 18.89° C | 47% | 1439.6 hPa | 0 mm | - | - | - |
| 1777644346 | 18.33° C | 47% | 1439.3 hPa | 0 mm | - | - | - |
| 1777643986 | 18.89° C | 46% | 1439.8 hPa | 0 mm | - | - | - |
| 1777643513 | 18.89° C | 46% | 1440.2 hPa | 0 mm | - | - | - |
| 1777643392 | 18.33° C | 46% | 1439.3 hPa | 0 mm | - | - | - |
| 1777634505 | 15.56° C | 54% | 1432.1 hPa | 0 mm | - | - | - |
| 1777634386 | 15° C | 54% | 1431.5 hPa | 0 mm | - | - | - |
| 1777634146 | 15° C | 53% | 1431.4 hPa | 0 mm | - | - | - |
| 1777634025 | 15° C | 53% | 1431.4 hPa | 0 mm | - | - | - |
| 1777633906 | 15.56° C | 54% | 1431.9 hPa | 0 mm | - | - | - |
| 1777633785 | 15° C | 54% | 1431.6 hPa | 0 mm | - | - | - |
* Rain latest hour (hover to see other rain measurements)
** Current wind speed in m/s (hover to see current wind gust speed)